createdAt,value
2023-09-02T00:02:11.360Z,92.29
2023-09-02T00:04:41.006Z,92.71
2023-09-02T00:07:07.435Z,93.15
2023-09-02T00:09:33.885Z,92.92
2023-09-02T00:12:00.361Z,92.50
2023-09-02T00:14:26.861Z,92.21
2023-09-02T00:16:53.301Z,92.27
2023-09-02T00:19:19.747Z,92.16
2023-09-02T00:21:46.190Z,92.45
2023-09-02T00:24:12.691Z,93.38
2023-09-02T00:26:39.272Z,93.36
2023-09-02T00:29:05.840Z,93.67
2023-09-02T00:31:32.401Z,94.08
2023-09-02T00:33:58.911Z,93.64
2023-09-02T00:36:25.468Z,93.90
2023-09-02T00:38:51.911Z,93.52
2023-09-02T00:41:40.647Z,94.64
2023-09-02T00:44:07.363Z,93.06
2023-09-02T00:46:33.996Z,92.80
2023-09-02T00:49:01.286Z,92.80
2023-09-02T00:51:28.720Z,92.36
2023-09-02T00:53:55.556Z,92.24
2023-09-02T00:56:23.375Z,92.33
2023-09-02T00:58:49.886Z,92.23
2023-09-02T01:01:16.689Z,92.51
2023-09-02T01:03:43.881Z,92.84
2023-09-02T01:06:10.558Z,93.45
2023-09-02T01:08:38.613Z,93.24
2023-09-02T01:11:05.152Z,92.72
2023-09-02T01:13:31.796Z,92.57
2023-09-02T01:15:58.843Z,92.61
2023-09-02T01:18:26.421Z,92.31
2023-09-02T01:21:01.471Z,92.54
2023-09-02T01:24:07.331Z,93.14
2023-09-02T01:26:55.598Z,92.55
2023-09-02T01:29:24.678Z,92.36
2023-09-02T01:31:53.443Z,91.89
2023-09-02T01:34:22.651Z,92.12
2023-09-02T01:36:53.003Z,92.45
2023-09-02T01:39:23.172Z,92.92
2023-09-02T01:41:52.200Z,93.23
2023-09-02T01:44:20.096Z,93.37
2023-09-02T01:46:50.310Z,94.32
2023-09-02T01:49:17.494Z,94.00
2023-09-02T01:51:45.641Z,93.57
2023-09-02T01:54:12.948Z,93.97
2023-09-02T01:56:39.619Z,93.77
2023-09-02T01:59:06.145Z,93.83
2023-09-02T02:01:35.387Z,93.48
2023-09-02T02:04:05.444Z,93.34
2023-09-02T02:06:33.141Z,93.61
2023-09-02T02:09:05.353Z,93.60
2023-09-02T02:11:37.522Z,93.84
2023-09-02T02:14:04.779Z,93.85
2023-09-02T02:16:32.265Z,93.47
2023-09-02T02:19:02.025Z,93.90
2023-09-02T02:21:29.852Z,93.70
2023-09-02T02:23:58.195Z,93.73
2023-09-02T02:26:24.799Z,93.61
2023-09-02T02:28:51.231Z,93.13
2023-09-02T02:31:17.778Z,93.57
2023-09-02T02:33:44.237Z,93.48
2023-09-02T02:36:11.049Z,93.54
2023-09-02T02:38:37.828Z,93.49
2023-09-02T02:41:04.306Z,93.48
2023-09-02T02:43:31.201Z,93.48
2023-09-02T02:45:57.826Z,93.49
2023-09-02T02:48:28.163Z,93.85
2023-09-02T02:50:54.563Z,93.36
2023-09-02T02:53:21.048Z,92.77
2023-09-02T02:55:47.499Z,92.99
2023-09-02T02:58:16.834Z,93.12
2023-09-02T03:00:44.635Z,93.51
2023-09-02T03:03:11.976Z,93.84
2023-09-02T03:05:42.177Z,93.85
2023-09-02T03:08:09.860Z,93.73
2023-09-02T03:10:37.011Z,93.85
2023-09-02T03:13:04.404Z,93.87
2023-09-02T03:15:31.141Z,94.22
2023-09-02T03:17:57.826Z,94.25
2023-09-02T03:20:24.434Z,94.74
2023-09-02T03:22:50.898Z,94.20
2023-09-02T03:25:17.443Z,94.38
2023-09-02T03:27:44.154Z,94.23
2023-09-02T03:30:10.939Z,94.14
2023-09-02T03:32:37.637Z,94.28
2023-09-02T03:35:05.596Z,94.10
2023-09-02T03:37:32.207Z,94.34
2023-09-02T03:39:58.967Z,94.60
2023-09-02T03:42:25.514Z,94.79
2023-09-02T03:44:52.270Z,95.19
2023-09-02T03:47:18.751Z,95.32
2023-09-02T03:49:45.243Z,95.31
2023-09-02T03:52:11.682Z,94.94
2023-09-02T03:54:39.854Z,94.76
2023-09-02T03:57:06.641Z,94.49
2023-09-02T03:59:33.200Z,94.63
2023-09-02T04:01:59.736Z,94.70
2023-09-02T04:04:27.209Z,94.11
2023-09-02T04:06:53.684Z,94.10
2023-09-02T04:09:20.108Z,94.11
2023-09-02T04:11:46.558Z,94.33
2023-09-02T04:14:13.005Z,95.13
2023-09-02T04:16:39.715Z,94.89
2023-09-02T04:19:06.293Z,94.75
2023-09-02T04:21:33.206Z,94.48
2023-09-02T04:23:59.800Z,94.45
2023-09-02T04:26:26.816Z,94.72
2023-09-02T04:28:56.810Z,94.50
2023-09-02T04:31:23.664Z,94.84
2023-09-02T04:33:50.140Z,94.58
2023-09-02T04:36:16.599Z,94.68
2023-09-02T04:38:43.127Z,95.23
2023-09-02T04:41:09.612Z,94.93
2023-09-02T04:43:36.315Z,95.20
2023-09-02T04:46:04.416Z,95.50
2023-09-02T04:48:31.224Z,94.88
2023-09-02T04:50:58.036Z,94.93
2023-09-02T04:53:24.559Z,95.19
2023-09-02T04:55:51.635Z,95.49
2023-09-02T04:58:18.997Z,95.78
2023-09-02T05:00:45.524Z,95.75
2023-09-02T05:03:11.979Z,95.94
2023-09-02T05:05:38.630Z,96.09
2023-09-02T05:08:05.315Z,96.02
2023-09-02T05:10:31.835Z,96.07
2023-09-02T05:12:58.450Z,96.27
2023-09-02T05:15:24.876Z,96.16
2023-09-02T05:17:52.124Z,96.51
2023-09-02T05:20:18.718Z,96.35
2023-09-02T05:22:45.250Z,96.36
2023-09-02T05:25:12.037Z,96.46
2023-09-02T05:27:40.053Z,96.44
2023-09-02T05:30:07.442Z,96.92
2023-09-02T05:32:34.042Z,97.65
2023-09-02T05:35:00.493Z,97.54
2023-09-02T05:37:26.957Z,98.15
2023-09-02T05:39:53.452Z,98.20
2023-09-02T05:42:19.921Z,98.72
2023-09-02T05:44:46.439Z,99.02
2023-09-02T05:47:14.210Z,99.80
2023-09-02T05:49:41.113Z,100.00
2023-09-02T05:52:07.794Z,100.00
2023-09-02T05:54:34.437Z,100.00
2023-09-02T05:57:01.379Z,100.00
2023-09-02T05:59:27.887Z,100.00
2023-09-02T06:01:56.849Z,100.00
2023-09-02T06:04:23.442Z,100.00
2023-09-02T06:06:49.909Z,100.00
2023-09-02T06:09:17.199Z,100.00
2023-09-02T06:11:44.057Z,100.00
2023-09-02T06:14:10.524Z,100.00
2023-09-02T06:16:37.018Z,100.00
2023-09-02T06:19:03.504Z,100.00
2023-09-02T06:21:29.949Z,100.00
2023-09-02T06:23:56.380Z,100.00
2023-09-02T06:26:24.370Z,100.00
2023-09-02T06:28:50.869Z,100.00
2023-09-02T06:31:17.433Z,100.00
2023-09-02T06:33:44.270Z,100.00
2023-09-02T06:36:13.018Z,100.00
2023-09-02T06:38:39.685Z,100.00
2023-09-02T06:41:11.643Z,100.00
2023-09-02T06:43:39.791Z,100.00
2023-09-02T06:46:17.762Z,100.00
2023-09-02T06:48:47.749Z,100.00
2023-09-02T06:51:15.019Z,100.00
2023-09-02T06:53:42.360Z,100.00
2023-09-02T06:56:10.344Z,100.00
2023-09-02T06:58:40.278Z,100.00
2023-09-02T07:01:07.361Z,100.00
2023-09-02T07:03:34.165Z,100.00
2023-09-02T07:06:17.754Z,100.00
2023-09-02T07:08:45.048Z,97.81
2023-09-02T07:11:12.805Z,93.37
2023-09-02T07:13:39.719Z,90.57
2023-09-02T07:16:07.623Z,88.84
2023-09-02T07:18:34.848Z,88.17
2023-09-02T07:21:03.054Z,87.26
2023-09-02T07:23:30.320Z,85.68
2023-09-02T07:25:58.495Z,82.96
2023-09-02T07:28:24.972Z,80.84
2023-09-02T07:30:51.460Z,79.99
2023-09-02T07:33:18.430Z,79.29
2023-09-02T07:35:45.175Z,79.30
2023-09-02T07:38:11.643Z,79.03
2023-09-02T07:40:38.181Z,78.92
2023-09-02T07:43:04.644Z,78.20
2023-09-02T07:45:31.147Z,77.84
2023-09-02T07:47:57.848Z,78.57
2023-09-02T07:50:24.446Z,78.74
2023-09-02T07:52:50.939Z,77.01
2023-09-02T07:55:20.231Z,76.40
2023-09-02T07:57:46.686Z,75.96
2023-09-02T08:00:13.241Z,76.06
2023-09-02T08:02:39.808Z,76.43
2023-09-02T08:05:07.620Z,75.92
2023-09-02T08:07:34.071Z,75.32
2023-09-02T08:10:00.585Z,74.72
2023-09-02T08:12:27.078Z,74.33
2023-09-02T08:14:53.560Z,73.99
2023-09-02T08:17:20.911Z,74.24
2023-09-02T08:19:48.158Z,74.51
2023-09-02T08:22:14.910Z,73.34
2023-09-02T08:24:43.303Z,72.68
2023-09-02T08:27:10.148Z,74.58
2023-09-02T08:29:37.818Z,72.38
2023-09-02T08:32:04.482Z,73.36
2023-09-02T08:34:30.986Z,71.88
2023-09-02T08:36:57.464Z,71.65
2023-09-02T08:39:23.955Z,70.28
2023-09-02T08:41:51.064Z,68.47
2023-09-02T08:44:20.645Z,67.65
2023-09-02T08:46:50.027Z,67.36
2023-09-02T08:49:17.540Z,67.83
2023-09-02T08:51:46.047Z,68.10
2023-09-02T08:54:13.555Z,67.43
2023-09-02T08:56:44.020Z,67.43
2023-09-02T08:59:11.399Z,69.83
2023-09-02T09:01:47.503Z,67.54
2023-09-02T09:04:15.651Z,64.29
2023-09-02T09:06:43.306Z,63.74
2023-09-02T09:09:10.925Z,63.50
2023-09-02T09:11:41.076Z,61.35
2023-09-02T09:14:11.069Z,63.75
2023-09-02T09:16:38.277Z,64.17
2023-09-02T09:19:04.944Z,60.07
2023-09-02T09:21:31.625Z,60.19
2023-09-02T09:23:58.109Z,59.30
2023-09-02T09:26:25.981Z,57.34
2023-09-02T09:28:58.086Z,58.37
2023-09-02T09:31:26.511Z,56.83
2023-09-02T09:33:54.945Z,54.18
2023-09-02T09:36:25.363Z,54.47
2023-09-02T09:39:00.023Z,54.64
2023-09-02T09:41:27.944Z,52.28
2023-09-02T09:44:14.855Z,52.89
2023-09-02T09:46:44.120Z,51.27
2023-09-02T09:49:22.088Z,51.23
2023-09-02T09:51:48.612Z,51.65
2023-09-02T09:54:15.074Z,48.92
2023-09-02T09:56:45.712Z,51.17
2023-09-02T09:59:12.538Z,47.93
2023-09-02T10:01:39.201Z,46.95
2023-09-02T10:04:09.368Z,47.44
2023-09-02T10:06:39.621Z,46.53
2023-09-02T10:09:06.117Z,46.21
2023-09-02T10:11:32.577Z,44.77
2023-09-02T10:14:01.486Z,43.91
2023-09-02T10:16:29.883Z,44.16
2023-09-02T10:18:56.448Z,43.03
2023-09-02T10:21:27.300Z,43.79
2023-09-02T10:23:56.661Z,44.31
2023-09-02T10:26:28.624Z,42.73
2023-09-02T10:29:00.655Z,42.77
2023-09-02T10:31:33.603Z,42.82
2023-09-02T10:34:22.310Z,42.62
2023-09-02T10:36:58.056Z,43.87
2023-09-02T10:39:44.982Z,44.37
2023-09-02T10:42:14.356Z,43.69
2023-09-02T10:44:40.944Z,43.88
2023-09-02T10:47:08.751Z,42.41
2023-09-02T10:49:36.667Z,40.22
2023-09-02T10:52:03.828Z,40.94
2023-09-02T10:55:09.388Z,40.17
2023-09-02T10:57:45.374Z,41.50
2023-09-02T11:00:22.720Z,42.68
2023-09-02T11:02:54.754Z,42.50
2023-09-02T11:05:22.515Z,41.20
2023-09-02T11:07:50.250Z,41.24
2023-09-02T11:10:18.609Z,40.92
2023-09-02T11:13:00.487Z,41.42
2023-09-02T11:15:27.981Z,39.38
2023-09-02T11:17:55.286Z,38.95
2023-09-02T11:20:25.353Z,39.02
2023-09-02T11:23:00.677Z,40.87
2023-09-02T11:25:31.454Z,39.83
2023-09-02T11:28:00.196Z,40.87
2023-09-02T11:30:30.300Z,40.61
2023-09-02T11:32:58.266Z,41.75
2023-09-02T11:35:28.330Z,41.88
2023-09-02T11:37:55.187Z,43.48
2023-09-02T11:40:24.185Z,43.77
2023-09-02T11:43:01.867Z,44.43
2023-09-02T11:45:35.079Z,42.07
2023-09-02T11:48:04.081Z,41.62
2023-09-02T11:50:30.717Z,41.01
2023-09-02T11:52:58.501Z,41.41
2023-09-02T11:55:26.278Z,41.44
2023-09-02T11:57:53.638Z,40.19
2023-09-02T12:00:22.115Z,39.50
2023-09-02T12:02:49.418Z,40.50
2023-09-02T12:05:16.729Z,38.60
2023-09-02T12:07:47.646Z,38.41
2023-09-02T12:10:16.143Z,38.10
2023-09-02T12:12:44.105Z,36.84
2023-09-02T12:15:18.544Z,37.98
2023-09-02T12:17:46.701Z,37.66
2023-09-02T12:20:14.986Z,38.67
2023-09-02T12:22:45.274Z,39.64
2023-09-02T12:25:26.591Z,40.06
2023-09-02T12:27:54.877Z,39.64
2023-09-02T12:30:34.229Z,40.78
2023-09-02T12:33:00.794Z,40.13
2023-09-02T12:35:27.320Z,39.52
2023-09-02T12:38:03.871Z,40.17
2023-09-02T12:40:30.858Z,37.55
2023-09-02T12:42:58.425Z,37.24
2023-09-02T12:45:32.965Z,37.83
2023-09-02T12:48:04.131Z,36.92
2023-09-02T12:50:31.884Z,36.97
2023-09-02T12:53:02.645Z,36.40
2023-09-02T12:55:30.360Z,35.98
2023-09-02T12:58:02.713Z,36.25
2023-09-02T13:00:29.336Z,36.72
2023-09-02T13:02:56.071Z,36.13
2023-09-02T13:05:22.722Z,36.63
2023-09-02T13:07:49.228Z,35.98
2023-09-02T13:10:17.123Z,36.04
2023-09-02T13:12:44.102Z,36.29
2023-09-02T13:15:10.718Z,37.41
2023-09-02T13:17:37.487Z,36.09
2023-09-02T13:20:04.450Z,35.52
2023-09-02T13:22:31.258Z,36.60
2023-09-02T13:24:58.073Z,35.77
2023-09-02T13:27:29.984Z,36.43
2023-09-02T13:29:56.683Z,35.05
2023-09-02T13:32:25.521Z,35.14
2023-09-02T13:35:16.046Z,35.26
2023-09-02T13:37:49.776Z,34.62
2023-09-02T13:40:16.151Z,35.64
2023-09-02T13:42:46.824Z,34.94
2023-09-02T13:45:25.312Z,35.78
2023-09-02T13:47:52.234Z,35.32
2023-09-02T13:50:20.226Z,36.79
2023-09-02T13:52:52.174Z,36.57
2023-09-02T13:55:20.912Z,36.84
2023-09-02T13:57:47.454Z,36.68
2023-09-02T14:00:33.838Z,36.69
2023-09-02T14:03:01.691Z,36.36
2023-09-02T14:05:28.413Z,35.67
2023-09-02T14:08:01.959Z,36.38
2023-09-02T14:10:32.132Z,35.79
2023-09-02T14:13:09.543Z,35.80
2023-09-02T14:15:36.631Z,36.24
2023-09-02T14:18:03.464Z,35.40
2023-09-02T14:20:29.947Z,35.57
2023-09-02T14:22:56.437Z,35.05
2023-09-02T14:25:22.933Z,34.90
2023-09-02T14:27:49.481Z,35.73
2023-09-02T14:30:16.118Z,34.24
2023-09-02T14:32:42.586Z,34.73
2023-09-02T14:35:09.390Z,35.16
2023-09-02T14:37:35.890Z,34.86
2023-09-02T14:40:04.746Z,34.50
2023-09-02T14:42:34.438Z,34.53
2023-09-02T14:45:03.563Z,35.96
2023-09-02T14:47:33.221Z,35.51
2023-09-02T14:49:59.793Z,36.58
2023-09-02T14:52:26.942Z,36.19
2023-09-02T14:54:53.594Z,36.68
2023-09-02T14:57:23.015Z,36.51
2023-09-02T14:59:55.108Z,35.84
2023-09-02T15:02:44.328Z,36.68
2023-09-02T15:05:19.298Z,37.52
2023-09-02T15:07:47.260Z,38.56
2023-09-02T15:10:26.725Z,40.01
2023-09-02T15:12:53.816Z,40.60
2023-09-02T15:15:25.785Z,41.37
2023-09-02T15:17:53.112Z,42.28
2023-09-02T15:20:29.991Z,43.76
2023-09-02T15:22:57.424Z,44.13
2023-09-02T15:25:27.805Z,44.55
2023-09-02T15:28:06.603Z,44.75
2023-09-02T15:30:34.855Z,44.98
2023-09-02T15:33:05.432Z,44.88
2023-09-02T15:35:34.627Z,45.35
2023-09-02T15:38:01.810Z,44.13
2023-09-02T15:40:31.372Z,44.23
2023-09-02T15:43:02.070Z,44.37
2023-09-02T15:45:28.586Z,44.02
2023-09-02T15:47:55.342Z,44.17
2023-09-02T15:50:22.749Z,44.21
2023-09-02T15:52:53.871Z,45.42
2023-09-02T15:55:22.156Z,44.56
2023-09-02T15:57:48.670Z,44.87
2023-09-02T16:00:15.353Z,45.52
2023-09-02T16:02:42.309Z,44.94
2023-09-02T16:05:08.971Z,45.32
2023-09-02T16:07:35.574Z,45.74
2023-09-02T16:10:02.183Z,45.72
2023-09-02T16:12:28.788Z,46.06
2023-09-02T16:14:55.593Z,45.40
2023-09-02T16:17:24.110Z,46.38
2023-09-02T16:19:50.922Z,45.60
2023-09-02T16:22:18.916Z,46.06
2023-09-02T16:24:47.004Z,45.55
2023-09-02T16:27:14.220Z,45.25
2023-09-02T16:29:41.332Z,45.30
2023-09-02T16:32:08.764Z,45.70
2023-09-02T16:34:36.414Z,45.62
2023-09-02T16:37:04.109Z,46.22
2023-09-02T16:39:30.950Z,45.45
2023-09-02T16:42:01.821Z,46.00
2023-09-02T16:44:28.332Z,46.02
2023-09-02T16:46:56.267Z,46.47
2023-09-02T16:49:26.202Z,46.59
2023-09-02T16:51:52.630Z,45.96
2023-09-02T16:54:19.162Z,45.81
2023-09-02T16:56:45.676Z,46.62
2023-09-02T16:59:12.886Z,47.15
2023-09-02T17:01:41.038Z,47.03
2023-09-02T17:04:07.626Z,47.00
2023-09-02T17:06:35.755Z,46.80
2023-09-02T17:09:04.733Z,46.78
2023-09-02T17:11:31.241Z,45.99
2023-09-02T17:13:59.198Z,46.63
2023-09-02T17:16:28.028Z,46.78
2023-09-02T17:18:55.395Z,46.36
2023-09-02T17:21:22.121Z,47.25
2023-09-02T17:23:48.874Z,46.70
2023-09-02T17:26:15.444Z,47.46
2023-09-02T17:28:42.333Z,47.79
2023-09-02T17:31:09.876Z,47.98
2023-09-02T17:33:38.258Z,49.00
2023-09-02T17:36:05.295Z,49.09
2023-09-02T17:38:31.775Z,49.85
2023-09-02T17:40:58.271Z,50.35
2023-09-02T17:43:24.849Z,50.64
2023-09-02T17:45:51.544Z,52.12
2023-09-02T17:48:18.371Z,51.49
2023-09-02T17:50:45.669Z,52.16
2023-09-02T17:53:12.114Z,52.60
2023-09-02T17:55:38.515Z,52.55
2023-09-02T17:58:06.421Z,53.07
2023-09-02T18:00:33.100Z,53.71
2023-09-02T18:03:01.271Z,53.60
2023-09-02T18:05:28.177Z,53.60
2023-09-02T18:07:54.658Z,54.34
2023-09-02T18:10:22.051Z,54.75
2023-09-02T18:12:48.544Z,55.36
2023-09-02T18:15:15.016Z,55.55
2023-09-02T18:17:41.564Z,56.22
2023-09-02T18:20:08.548Z,56.78
2023-09-02T18:22:35.551Z,57.14
2023-09-02T18:25:03.308Z,58.25
2023-09-02T18:27:29.836Z,58.59
2023-09-02T18:29:56.506Z,58.92
2023-09-02T18:32:23.082Z,59.86
2023-09-02T18:34:49.676Z,60.09
2023-09-02T18:37:16.150Z,60.64
2023-09-02T18:39:42.614Z,60.84
2023-09-02T18:42:09.064Z,61.33
2023-09-02T18:44:35.552Z,61.86
2023-09-02T18:47:02.086Z,62.47
2023-09-02T18:49:28.630Z,63.11
2023-09-02T18:51:55.329Z,64.26
2023-09-02T18:54:21.799Z,64.91
2023-09-02T18:56:48.349Z,65.53
2023-09-02T18:59:14.867Z,66.46
2023-09-02T19:01:41.361Z,67.39
2023-09-02T19:04:09.233Z,68.04
2023-09-02T19:06:36.449Z,68.35
2023-09-02T19:09:03.609Z,69.15
2023-09-02T19:11:30.949Z,69.71
2023-09-02T19:13:57.652Z,70.31
2023-09-02T19:16:25.654Z,69.92
2023-09-02T19:18:53.043Z,71.03
2023-09-02T19:21:19.613Z,71.18
2023-09-02T19:23:46.589Z,72.71
2023-09-02T19:26:14.952Z,73.93
2023-09-02T19:28:41.938Z,74.71
2023-09-02T19:31:08.551Z,75.32
2023-09-02T19:33:35.144Z,76.06
2023-09-02T19:36:01.636Z,76.67
2023-09-02T19:38:28.169Z,77.19
2023-09-02T19:40:55.362Z,78.18
2023-09-02T19:43:21.798Z,78.70
2023-09-02T19:45:48.324Z,79.18
2023-09-02T19:48:15.003Z,79.59
2023-09-02T19:50:44.659Z,80.14
2023-09-02T19:53:12.961Z,80.43
2023-09-02T19:55:46.857Z,81.31
2023-09-02T19:58:14.839Z,81.71
2023-09-02T20:00:45.405Z,82.53
2023-09-02T20:03:16.620Z,83.22
2023-09-02T20:05:47.217Z,83.84
2023-09-02T20:08:13.893Z,84.72
2023-09-02T20:10:41.348Z,84.80
2023-09-02T20:13:08.140Z,85.84
2023-09-02T20:15:35.832Z,85.44
2023-09-02T20:18:03.597Z,86.08
2023-09-02T20:20:30.882Z,86.38
2023-09-02T20:22:57.459Z,86.80
2023-09-02T20:25:23.969Z,86.91
2023-09-02T20:27:50.402Z,87.16
2023-09-02T20:30:16.973Z,87.59
2023-09-02T20:32:44.230Z,87.74
2023-09-02T20:35:11.857Z,86.99
2023-09-02T20:37:39.764Z,87.45
2023-09-02T20:40:09.252Z,87.62
2023-09-02T20:42:36.194Z,86.68
2023-09-02T20:45:04.438Z,86.85
2023-09-02T20:47:32.002Z,86.82
2023-09-02T20:49:58.548Z,86.77
2023-09-02T20:52:25.647Z,86.99
2023-09-02T20:54:54.336Z,87.03
2023-09-02T20:57:20.801Z,87.10
2023-09-02T20:59:47.369Z,87.45
2023-09-02T21:02:13.918Z,87.90
2023-09-02T21:04:44.663Z,88.54
2023-09-02T21:07:11.264Z,88.71
2023-09-02T21:09:37.715Z,89.21
2023-09-02T21:12:04.523Z,89.01
2023-09-02T21:14:30.990Z,88.64
2023-09-02T21:16:57.457Z,88.90
2023-09-02T21:19:24.044Z,88.23
2023-09-02T21:21:51.471Z,88.73
2023-09-02T21:24:19.729Z,88.26
2023-09-02T21:26:46.238Z,88.45
2023-09-02T21:29:12.731Z,88.76
2023-09-02T21:31:39.209Z,89.04
2023-09-02T21:34:05.659Z,88.90
2023-09-02T21:36:32.166Z,88.92
2023-09-02T21:38:58.662Z,89.22
2023-09-02T21:41:25.074Z,89.44
2023-09-02T21:43:52.089Z,89.55
2023-09-02T21:46:20.554Z,89.60
2023-09-02T21:48:47.023Z,89.55
2023-09-02T21:51:13.597Z,89.91
2023-09-02T21:53:42.179Z,90.49
2023-09-02T21:56:12.415Z,90.34
2023-09-02T21:58:39.968Z,90.33
2023-09-02T22:01:10.698Z,90.63
2023-09-02T22:03:37.875Z,90.65
2023-09-02T22:06:10.181Z,91.14
2023-09-02T22:08:38.136Z,90.71
2023-09-02T22:11:04.725Z,91.14
2023-09-02T22:13:31.848Z,91.13
2023-09-02T22:15:58.729Z,91.51
2023-09-02T22:18:27.365Z,91.54
2023-09-02T22:20:57.818Z,92.38
2023-09-02T22:23:25.953Z,91.77
2023-09-02T22:25:57.338Z,92.44
2023-09-02T22:28:23.825Z,92.25
2023-09-02T22:30:52.216Z,92.15
2023-09-02T22:33:20.970Z,91.69
2023-09-02T22:35:52.486Z,92.52
2023-09-02T22:38:19.944Z,92.29
2023-09-02T22:40:47.204Z,92.09
2023-09-02T22:43:13.713Z,92.60
2023-09-02T22:45:40.229Z,92.65
2023-09-02T22:48:07.140Z,92.98
2023-09-02T22:50:34.863Z,92.62
2023-09-02T22:53:07.351Z,92.63
2023-09-02T22:55:34.948Z,92.18
2023-09-02T22:58:02.492Z,91.98
2023-09-02T23:00:29.850Z,91.83
2023-09-02T23:02:57.475Z,92.13
2023-09-02T23:05:27.856Z,92.16
2023-09-02T23:07:55.492Z,92.12
2023-09-02T23:10:23.279Z,92.87
2023-09-02T23:12:50.093Z,92.52
2023-09-02T23:15:17.056Z,92.98
2023-09-02T23:17:43.593Z,92.40
2023-09-02T23:20:10.995Z,93.46
2023-09-02T23:22:37.828Z,92.77
2023-09-02T23:25:05.794Z,93.17
2023-09-02T23:27:32.394Z,93.54
2023-09-02T23:29:58.859Z,93.68
2023-09-02T23:32:25.897Z,93.78
2023-09-02T23:34:54.426Z,93.92
2023-09-02T23:37:21.097Z,93.38
2023-09-02T23:39:48.026Z,93.18
2023-09-02T23:42:14.619Z,93.64
2023-09-02T23:44:41.052Z,93.82
2023-09-02T23:47:07.536Z,93.56
2023-09-02T23:49:34.009Z,93.43
2023-09-02T23:52:00.673Z,93.27
2023-09-02T23:54:28.672Z,93.38
2023-09-02T23:56:55.178Z,93.20
2023-09-02T23:59:21.676Z,93.36
